createdAt,value
2018-07-14T00:01:35.482Z,77.80
2018-07-14T00:04:04.309Z,77.80
2018-07-14T00:06:32.004Z,77.90
2018-07-14T00:08:59.696Z,77.80
2018-07-14T00:11:27.394Z,77.80
2018-07-14T00:13:55.104Z,77.90
2018-07-14T00:16:23.124Z,77.90
2018-07-14T00:18:50.807Z,77.80
2018-07-14T00:21:18.596Z,77.80
2018-07-14T00:23:46.268Z,77.80
2018-07-14T00:26:17.996Z,77.90
2018-07-14T00:28:46.016Z,77.90
2018-07-14T00:31:13.704Z,77.80
2018-07-14T00:33:41.383Z,77.90
2018-07-14T00:36:09.056Z,77.90
2018-07-14T00:38:36.736Z,77.90
2018-07-14T00:41:05.042Z,78.00
2018-07-14T00:43:32.758Z,77.90
2018-07-14T00:46:00.460Z,77.90
2018-07-14T00:48:28.120Z,77.90
2018-07-14T00:50:55.824Z,77.90
2018-07-14T00:53:23.559Z,77.80
2018-07-14T00:55:51.281Z,77.80
2018-07-14T00:58:19.000Z,77.90
2018-07-14T01:00:46.700Z,78.50
2018-07-14T01:03:14.392Z,77.80
2018-07-14T01:05:42.084Z,77.90
2018-07-14T01:08:09.846Z,77.90
2018-07-14T01:10:37.545Z,77.90
2018-07-14T01:15:35.024Z,77.90
2018-07-14T01:18:02.708Z,77.90
2018-07-14T01:20:30.419Z,77.90
2018-07-14T01:22:59.088Z,77.90
2018-07-14T01:25:26.779Z,77.90
2018-07-14T01:27:55.627Z,77.90
2018-07-14T01:30:23.312Z,77.90
2018-07-14T01:32:50.999Z,78.00
2018-07-14T01:35:18.699Z,78.00
2018-07-14T01:37:48.456Z,78.00
2018-07-14T01:40:16.116Z,78.00
2018-07-14T01:42:43.777Z,78.00
2018-07-14T01:45:11.428Z,78.00
2018-07-14T01:47:39.105Z,78.00
2018-07-14T01:50:06.772Z,78.00
2018-07-14T01:52:36.540Z,78.00
2018-07-14T01:55:06.480Z,77.90
2018-07-14T01:57:35.795Z,78.00
2018-07-14T02:00:04.377Z,78.00
2018-07-14T02:02:32.075Z,78.00
2018-07-14T02:05:00.748Z,78.00
2018-07-14T02:07:29.450Z,78.00
2018-07-14T02:09:57.112Z,78.10
2018-07-14T02:12:24.803Z,78.00
2018-07-14T02:14:52.587Z,78.00
2018-07-14T02:17:20.344Z,78.10
2018-07-14T02:19:48.016Z,78.10
2018-07-14T02:22:15.680Z,78.10
2018-07-14T02:24:43.348Z,78.10
2018-07-14T02:29:38.568Z,78.10
2018-07-14T02:32:06.229Z,78.00
2018-07-14T02:34:35.464Z,78.00
2018-07-14T02:37:03.822Z,78.10
2018-07-14T02:39:31.498Z,78.10
2018-07-14T02:41:59.161Z,78.10
2018-07-14T02:44:26.820Z,78.00
2018-07-14T02:46:55.476Z,78.10
2018-07-14T02:49:23.148Z,78.10
2018-07-14T02:51:50.812Z,78.10
2018-07-14T02:54:18.497Z,78.10
2018-07-14T02:56:46.173Z,78.10
2018-07-14T02:59:13.999Z,78.10
2018-07-14T03:01:41.696Z,78.20
2018-07-14T03:04:09.493Z,78.10
2018-07-14T03:06:37.176Z,78.00
2018-07-14T03:09:05.697Z,78.10
2018-07-14T03:11:34.644Z,78.10
2018-07-14T03:14:02.321Z,78.10
2018-07-14T03:16:29.996Z,78.10
2018-07-14T03:18:57.656Z,78.10
2018-07-14T03:21:25.374Z,78.20
2018-07-14T03:23:53.092Z,78.10
2018-07-14T03:26:20.760Z,78.20
2018-07-14T03:28:48.479Z,78.20
2018-07-14T03:31:16.149Z,78.30
2018-07-14T03:33:43.808Z,78.30
2018-07-14T03:36:11.838Z,78.30
2018-07-14T03:38:39.555Z,78.30
2018-07-14T03:41:07.251Z,78.30
2018-07-14T03:43:35.920Z,78.30
2018-07-14T03:46:05.658Z,78.30
2018-07-14T03:48:34.728Z,78.30
2018-07-14T03:51:03.385Z,78.30
2018-07-14T03:53:31.048Z,78.30
2018-07-14T03:55:58.704Z,78.40
2018-07-14T03:58:26.374Z,78.40
2018-07-14T04:00:54.056Z,78.30
2018-07-14T04:03:21.728Z,78.40
2018-07-14T04:05:49.566Z,78.30
2018-07-14T04:08:17.231Z,78.30
2018-07-14T04:10:44.888Z,78.40
2018-07-14T04:13:12.560Z,78.40
2018-07-14T04:15:40.224Z,78.30
2018-07-14T04:18:07.896Z,78.40
2018-07-14T04:20:37.104Z,78.40
2018-07-14T04:23:05.984Z,78.40
2018-07-14T04:25:34.756Z,78.40
2018-07-14T04:28:03.741Z,78.40
2018-07-14T04:30:31.422Z,78.40
2018-07-14T04:32:59.091Z,78.30
2018-07-14T04:35:26.756Z,78.30
2018-07-14T04:37:54.492Z,78.40
2018-07-14T04:40:22.208Z,78.20
2018-07-14T04:42:49.900Z,78.40
2018-07-14T04:45:17.652Z,78.40
2018-07-14T04:47:45.326Z,78.30
2018-07-14T04:50:12.991Z,78.40
2018-07-14T04:52:40.672Z,78.20
2018-07-14T04:55:08.924Z,78.30
2018-07-14T04:57:36.692Z,78.50
2018-07-14T05:02:35.856Z,78.30
2018-07-14T05:05:04.400Z,78.30
2018-07-14T05:07:32.079Z,78.20
2018-07-14T05:09:59.744Z,78.40
2018-07-14T05:12:27.568Z,78.40
2018-07-14T05:14:55.241Z,78.30
2018-07-14T05:17:22.918Z,78.30
2018-07-14T05:19:51.643Z,78.40
2018-07-14T05:22:19.320Z,78.30
2018-07-14T05:24:46.988Z,78.30
2018-07-14T05:27:14.661Z,78.30
2018-07-14T05:32:09.921Z,78.30
2018-07-14T05:34:38.611Z,78.30
2018-07-14T05:37:06.293Z,78.40
2018-07-14T05:39:35.599Z,78.30
2018-07-14T05:42:04.428Z,78.50
2018-07-14T05:44:32.168Z,78.30
2018-07-14T05:46:59.831Z,78.20
2018-07-14T05:49:28.501Z,78.30
2018-07-14T05:51:56.300Z,78.30
2018-07-14T05:54:23.988Z,78.40
2018-07-14T05:56:52.548Z,78.40
2018-07-14T05:59:21.084Z,78.40
2018-07-14T06:01:49.776Z,78.50
2018-07-14T06:04:17.449Z,78.60
2018-07-14T06:06:45.124Z,78.50
2018-07-14T06:09:12.783Z,78.40
2018-07-14T06:11:41.460Z,78.40
2018-07-14T06:14:10.070Z,78.40
2018-07-14T06:16:38.815Z,77.90
2018-07-14T06:19:07.600Z,77.80
2018-07-14T06:21:36.632Z,77.60
2018-07-14T06:24:05.824Z,77.40
2018-07-14T06:26:34.382Z,77.00
2018-07-14T06:29:02.101Z,76.90
2018-07-14T06:31:29.776Z,76.80
2018-07-14T06:33:58.801Z,76.60
2018-07-14T06:36:27.544Z,76.70
2018-07-14T06:38:55.355Z,76.00
2018-07-14T06:41:23.071Z,76.60
2018-07-14T06:43:50.972Z,76.60
2018-07-14T06:46:18.652Z,76.50
2018-07-14T06:48:47.220Z,76.60
2018-07-14T06:51:15.775Z,76.60
2018-07-14T06:53:44.342Z,76.50
2018-07-14T06:56:14.138Z,76.60
2018-07-14T06:58:41.810Z,76.80
2018-07-14T07:01:09.732Z,76.40
2018-07-14T07:03:38.320Z,76.40
2018-07-14T07:06:06.655Z,76.50
2018-07-14T07:08:36.173Z,76.50
2018-07-14T07:11:05.309Z,76.40
2018-07-14T07:13:35.532Z,76.20
2018-07-14T07:16:05.316Z,76.40
2018-07-14T07:18:34.764Z,76.30
2018-07-14T07:21:03.672Z,76.40
2018-07-14T07:23:31.558Z,76.40
2018-07-14T07:25:59.236Z,76.50
2018-07-14T07:28:29.515Z,76.50
2018-07-14T07:30:57.428Z,76.60
2018-07-14T07:33:25.256Z,76.70
2018-07-14T07:38:20.377Z,76.80
2018-07-14T07:40:50.371Z,76.70
2018-07-14T07:43:18.124Z,76.70
2018-07-14T07:45:45.817Z,76.80
2018-07-14T07:48:13.504Z,76.80
2018-07-14T07:50:41.173Z,76.80
2018-07-14T07:53:08.832Z,76.80
2018-07-14T07:55:37.381Z,76.90
2018-07-14T07:58:06.388Z,76.80
2018-07-14T08:00:35.429Z,76.90
2018-07-14T08:03:05.691Z,77.00
2018-07-14T08:05:35.865Z,77.00
2018-07-14T08:08:04.524Z,76.90
2018-07-14T08:10:32.206Z,76.80
2018-07-14T08:12:59.897Z,77.10
2018-07-14T08:15:27.564Z,76.90
2018-07-14T08:17:55.232Z,77.20
2018-07-14T08:20:22.934Z,77.10
2018-07-14T08:22:50.805Z,77.10
2018-07-14T08:25:20.019Z,77.10
2018-07-14T08:27:47.736Z,76.90
2018-07-14T08:30:15.443Z,77.00
2018-07-14T08:32:43.128Z,77.20
2018-07-14T08:35:11.111Z,76.90
2018-07-14T08:37:38.791Z,77.20
2018-07-14T08:40:06.515Z,77.30
2018-07-14T08:42:36.254Z,77.10
2018-07-14T08:45:05.388Z,77.10
2018-07-14T08:47:36.764Z,77.20
2018-07-14T08:50:06.044Z,77.10
2018-07-14T08:52:34.992Z,77.10
2018-07-14T08:55:04.589Z,77.10
2018-07-14T08:57:34.820Z,77.10
2018-07-14T09:00:03.600Z,77.20
2018-07-14T09:02:31.272Z,77.30
2018-07-14T09:04:58.938Z,77.20
2018-07-14T09:07:26.594Z,77.20
2018-07-14T09:09:54.278Z,77.20
2018-07-14T09:12:21.949Z,77.20
2018-07-14T09:14:49.615Z,77.20
2018-07-14T09:17:17.285Z,77.20
2018-07-14T09:19:44.982Z,77.20
2018-07-14T09:24:40.097Z,77.30
2018-07-14T09:27:07.789Z,76.90
2018-07-14T09:29:36.110Z,77.00
2018-07-14T09:32:06.575Z,77.00
2018-07-14T09:34:35.350Z,77.10
2018-07-14T09:37:04.532Z,77.20
2018-07-14T09:39:32.216Z,77.20
2018-07-14T09:41:59.903Z,77.30
2018-07-14T09:44:27.865Z,77.20
2018-07-14T09:46:56.605Z,77.30
2018-07-14T09:49:24.592Z,77.20
2018-07-14T09:51:52.695Z,77.20
2018-07-14T09:54:20.539Z,77.20
2018-07-14T09:56:48.396Z,77.20
2018-07-14T09:59:16.076Z,77.20
2018-07-14T10:01:43.773Z,77.10
2018-07-14T10:06:31.675Z,77.20
2018-07-14T10:08:59.353Z,77.20
2018-07-14T10:11:27.040Z,77.00
2018-07-14T10:13:54.736Z,77.20
2018-07-14T10:16:35.397Z,77.10
2018-07-14T10:19:05.899Z,77.10
2018-07-14T10:21:35.609Z,77.20
2018-07-14T10:24:04.191Z,77.10
2018-07-14T10:26:31.948Z,77.20
2018-07-14T10:28:59.664Z,77.60
2018-07-14T10:31:27.342Z,77.20
2018-07-14T10:33:55.162Z,77.10
2018-07-14T10:36:22.848Z,77.10
2018-07-14T10:38:50.793Z,77.10
2018-07-14T10:41:18.662Z,77.00
2018-07-14T10:43:46.336Z,77.00
2018-07-14T10:46:15.088Z,77.00
2018-07-14T10:48:42.774Z,77.00
2018-07-14T10:51:10.445Z,77.00
2018-07-14T10:53:38.164Z,77.10
2018-07-14T10:56:06.718Z,77.00
2018-07-14T10:58:36.427Z,77.00
2018-07-14T11:01:05.456Z,77.00
2018-07-14T11:03:36.848Z,77.00
2018-07-14T11:06:06.160Z,77.00
2018-07-14T11:08:35.549Z,77.10
2018-07-14T11:11:04.643Z,77.10
2018-07-14T11:13:34.424Z,77.10
2018-07-14T11:16:04.599Z,77.10
2018-07-14T11:18:33.684Z,77.10
2018-07-14T11:21:03.427Z,77.20
2018-07-14T11:23:31.099Z,77.10
2018-07-14T11:25:59.144Z,77.10
2018-07-14T11:28:26.968Z,77.20
2018-07-14T11:30:54.637Z,77.10
2018-07-14T11:33:22.310Z,77.00
2018-07-14T11:35:50.996Z,76.40
2018-07-14T11:38:18.661Z,76.40
2018-07-14T11:40:47.444Z,75.90
2018-07-14T11:43:16.133Z,75.80
2018-07-14T11:45:45.045Z,76.50
2018-07-14T11:48:12.769Z,75.20
2018-07-14T11:50:40.440Z,74.60
2018-07-14T11:53:08.128Z,74.70
2018-07-14T11:55:37.092Z,74.90
2018-07-14T11:58:06.028Z,74.20
2018-07-14T12:00:35.496Z,74.40
2018-07-14T12:03:05.367Z,74.60
2018-07-14T12:05:33.717Z,74.50
2018-07-14T12:08:11.804Z,74.70
2018-07-14T12:10:39.767Z,74.90
2018-07-14T12:13:07.532Z,74.90
2018-07-14T12:15:36.482Z,75.00
2018-07-14T12:18:06.320Z,75.00
2018-07-14T12:20:35.869Z,74.90
2018-07-14T12:23:03.590Z,75.10
2018-07-14T12:25:31.260Z,75.00
2018-07-14T12:27:58.952Z,75.80
2018-07-14T12:30:26.666Z,75.20
2018-07-14T12:32:54.378Z,75.10
2018-07-14T12:35:22.088Z,75.30
2018-07-14T12:37:50.601Z,75.30
2018-07-14T12:40:18.280Z,75.40
2018-07-14T12:42:45.970Z,75.70
2018-07-14T12:45:13.760Z,76.20
2018-07-14T12:47:41.459Z,75.30
2018-07-14T12:50:09.394Z,75.00
2018-07-14T12:52:37.393Z,74.50
2018-07-14T12:55:05.593Z,75.00
2018-07-14T13:00:01.295Z,74.30
2018-07-14T13:02:29.121Z,74.30
2018-07-14T13:04:56.799Z,74.00
2018-07-14T13:07:24.478Z,74.00
2018-07-14T13:09:52.268Z,74.00
2018-07-14T13:12:19.948Z,74.20
2018-07-14T13:14:48.838Z,73.20
2018-07-14T13:17:16.534Z,73.80
2018-07-14T13:19:45.095Z,73.50
2018-07-14T13:22:12.779Z,73.50
2018-07-14T13:24:40.472Z,73.40
2018-07-14T13:27:08.170Z,73.50
2018-07-14T13:29:36.900Z,73.10
2018-07-14T13:32:08.048Z,72.90
2018-07-14T13:34:36.473Z,73.30
2018-07-14T13:37:06.241Z,73.90
2018-07-14T13:39:35.816Z,73.80
2018-07-14T13:42:06.508Z,73.80
2018-07-14T13:47:04.138Z,73.70
2018-07-14T13:49:31.954Z,73.60
2018-07-14T13:51:59.632Z,73.30
2018-07-14T13:54:27.816Z,73.70
2018-07-14T13:56:55.617Z,74.30
2018-07-14T13:59:24.167Z,74.40
2018-07-14T14:01:52.711Z,74.70
2018-07-14T14:04:20.757Z,74.50
2018-07-14T14:06:48.439Z,74.70
2018-07-14T14:09:17.590Z,74.90
2018-07-14T14:11:45.265Z,74.80
2018-07-14T14:14:12.924Z,74.90
2018-07-14T14:16:40.596Z,75.00
2018-07-14T14:19:08.304Z,75.00
2018-07-14T14:21:37.721Z,75.10
2018-07-14T14:24:06.592Z,75.10
2018-07-14T14:26:35.904Z,75.30
2018-07-14T14:29:06.504Z,75.40
2018-07-14T14:31:35.970Z,75.30
2018-07-14T14:34:05.801Z,75.40
2018-07-14T14:36:35.459Z,75.40
2018-07-14T14:39:05.401Z,75.50
2018-07-14T14:41:34.898Z,75.50
2018-07-14T14:44:05.042Z,75.60
2018-07-14T14:46:32.808Z,75.60
2018-07-14T14:51:27.964Z,75.50
2018-07-14T14:53:55.652Z,75.60
2018-07-14T14:56:23.320Z,75.80
2018-07-14T14:58:52.010Z,75.80
2018-07-14T15:01:19.726Z,75.80
2018-07-14T15:03:47.396Z,75.70
2018-07-14T15:06:16.054Z,75.70
2018-07-14T15:08:45.414Z,75.70
2018-07-14T15:11:13.246Z,75.70
2018-07-14T15:16:08.481Z,75.80
2018-07-14T15:18:36.587Z,75.80
2018-07-14T15:21:06.277Z,76.00
2018-07-14T15:23:34.521Z,76.00
2018-07-14T15:26:02.247Z,76.00
2018-07-14T15:28:31.581Z,76.20
2018-07-14T15:30:59.271Z,76.10
2018-07-14T15:33:26.966Z,76.00
2018-07-14T15:35:54.632Z,76.00
2018-07-14T15:38:22.308Z,76.00
2018-07-14T15:40:49.971Z,76.20
2018-07-14T15:43:18.556Z,76.10
2018-07-14T15:45:47.272Z,76.10
2018-07-14T15:48:14.944Z,76.10
2018-07-14T15:50:43.648Z,76.10
2018-07-14T15:53:12.364Z,76.30
2018-07-14T15:55:40.052Z,76.30
2018-07-14T15:58:07.723Z,76.30
2018-07-14T16:00:36.487Z,76.40
2018-07-14T16:03:05.656Z,76.30
2018-07-14T16:05:37.584Z,76.40
2018-07-14T16:08:12.811Z,76.30
2018-07-14T16:10:45.073Z,76.90
2018-07-14T16:13:13.344Z,76.20
2018-07-14T16:15:43.817Z,76.40
2018-07-14T16:18:12.529Z,76.40
2018-07-14T16:20:40.227Z,76.40
2018-07-14T16:23:07.892Z,76.30
2018-07-14T16:25:35.595Z,76.40
2018-07-14T16:28:06.547Z,76.60
2018-07-14T16:30:36.905Z,76.50
2018-07-14T16:33:06.610Z,76.40
2018-07-14T16:35:35.454Z,76.50
2018-07-14T16:38:05.852Z,76.40
2018-07-14T16:40:35.597Z,76.50
2018-07-14T16:43:06.733Z,76.50
2018-07-14T16:45:36.396Z,76.50
2018-07-14T16:48:07.235Z,76.50
2018-07-14T16:50:36.829Z,77.20
2018-07-14T16:53:05.620Z,76.50
2018-07-14T16:55:34.753Z,76.40
2018-07-14T16:58:07.211Z,76.50
2018-07-14T17:00:36.867Z,76.50
2018-07-14T17:03:10.422Z,76.50
2018-07-14T17:05:38.124Z,76.50
2018-07-14T17:08:07.477Z,76.60
2018-07-14T17:10:35.768Z,76.40
2018-07-14T17:13:04.435Z,76.60
2018-07-14T17:15:32.105Z,76.50
2018-07-14T17:17:59.795Z,76.50
2018-07-14T17:20:27.516Z,76.50
2018-07-14T17:22:55.176Z,76.50
2018-07-14T17:25:22.950Z,76.50
2018-07-14T17:27:52.530Z,76.60
2018-07-14T17:30:20.266Z,76.60
2018-07-14T17:32:49.065Z,76.50
2018-07-14T17:35:16.737Z,76.50
2018-07-14T17:37:44.412Z,76.50
2018-07-14T17:40:13.081Z,76.60
2018-07-14T17:42:41.297Z,76.50
2018-07-14T17:45:09.051Z,76.50
2018-07-14T17:47:36.853Z,76.60
2018-07-14T17:50:06.010Z,76.60
2018-07-14T17:52:35.253Z,76.60
2018-07-14T17:55:03.736Z,76.60
2018-07-14T17:57:31.427Z,76.60
2018-07-14T17:59:59.143Z,76.60
2018-07-14T18:02:26.799Z,77.20
2018-07-14T18:04:54.467Z,76.60
2018-07-14T18:07:22.141Z,76.60
2018-07-14T18:09:49.810Z,76.60
2018-07-14T18:12:17.636Z,76.60
2018-07-14T18:14:45.507Z,76.60
2018-07-14T18:17:13.207Z,76.60
2018-07-14T18:19:40.877Z,76.60
2018-07-14T18:22:08.748Z,77.30
2018-07-14T18:24:36.471Z,76.70
2018-07-14T18:27:05.821Z,76.70
2018-07-14T18:29:35.276Z,76.80
2018-07-14T18:32:05.176Z,76.70
2018-07-14T18:34:33.832Z,76.70
2018-07-14T18:37:09.580Z,76.70
2018-07-14T18:39:39.254Z,76.70
2018-07-14T18:42:07.018Z,77.50
2018-07-14T18:44:35.660Z,76.80
2018-07-14T18:47:04.813Z,76.70
2018-07-14T18:49:33.278Z,76.80
2018-07-14T18:52:01.002Z,76.80
2018-07-14T18:54:28.681Z,76.80
2018-07-14T18:57:05.042Z,76.80
2018-07-14T18:59:32.750Z,76.80
2018-07-14T19:02:01.368Z,76.80
2018-07-14T19:04:29.208Z,76.80
2018-07-14T19:06:56.924Z,77.00
2018-07-14T19:09:24.595Z,77.60
2018-07-14T19:11:52.311Z,77.00
2018-07-14T19:14:20.114Z,77.00
2018-07-14T19:16:47.805Z,77.00
2018-07-14T19:19:15.580Z,76.80
2018-07-14T19:21:43.524Z,77.00
2018-07-14T19:24:11.196Z,77.00
2018-07-14T19:26:38.860Z,77.00
2018-07-14T19:29:07.072Z,77.10
2018-07-14T19:31:36.640Z,77.10
2018-07-14T19:34:07.045Z,77.10
2018-07-14T19:36:37.636Z,76.70
2018-07-14T19:39:06.672Z,77.00
2018-07-14T19:41:35.516Z,77.00
2018-07-14T19:44:04.927Z,77.10
2018-07-14T19:46:35.019Z,77.00
2018-07-14T19:49:03.534Z,77.00
2018-07-14T19:51:33.610Z,77.00
2018-07-14T19:54:02.253Z,76.90
2018-07-14T19:56:31.916Z,76.50
2018-07-14T19:59:00.488Z,76.60
2018-07-14T20:01:28.156Z,76.70
2018-07-14T20:03:56.705Z,76.80
2018-07-14T20:06:24.386Z,76.90
2018-07-14T20:08:52.940Z,76.60
2018-07-14T20:11:21.897Z,76.90
2018-07-14T20:13:50.587Z,76.90
2018-07-14T20:16:18.254Z,77.00
2018-07-14T20:18:46.984Z,76.90
2018-07-14T20:21:14.656Z,77.00
2018-07-14T20:23:43.345Z,76.90
2018-07-14T20:26:11.299Z,77.90
2018-07-14T20:28:40.212Z,77.10
2018-07-14T20:31:09.027Z,77.00
2018-07-14T20:33:36.819Z,77.00
2018-07-14T20:36:07.184Z,77.30
2018-07-14T20:38:35.772Z,76.90
2018-07-14T20:41:05.019Z,77.00
2018-07-14T20:43:32.703Z,77.10
2018-07-14T20:46:01.298Z,76.80
2018-07-14T20:48:28.976Z,77.00
2018-07-14T20:50:57.524Z,77.10
2018-07-14T20:53:25.935Z,76.90
2018-07-14T20:55:53.604Z,77.10
2018-07-14T20:58:21.288Z,77.10
2018-07-14T21:00:48.944Z,77.10
2018-07-14T21:03:16.708Z,77.20
2018-07-14T21:05:44.767Z,77.20
2018-07-14T21:08:12.465Z,77.20
2018-07-14T21:10:40.133Z,77.10
2018-07-14T21:13:08.768Z,77.60
2018-07-14T21:15:39.057Z,77.00
2018-07-14T21:18:06.764Z,77.30
2018-07-14T21:20:35.792Z,77.10
2018-07-14T21:23:06.448Z,77.30
2018-07-14T21:25:35.740Z,77.30
2018-07-14T21:28:04.458Z,77.20
2018-07-14T21:30:32.175Z,77.10
2018-07-14T21:32:59.853Z,77.30
2018-07-14T21:35:27.520Z,77.30
2018-07-14T21:37:55.197Z,77.10
2018-07-14T21:40:22.887Z,77.30
2018-07-14T21:42:50.549Z,77.20
2018-07-14T21:45:18.213Z,77.10
2018-07-14T21:47:45.879Z,77.20
2018-07-14T21:50:13.680Z,77.40
2018-07-14T21:52:41.352Z,77.30
2018-07-14T21:55:09.051Z,77.00
2018-07-14T21:57:36.740Z,77.00
2018-07-14T22:00:05.892Z,77.00
2018-07-14T22:02:34.020Z,77.00
2018-07-14T22:05:01.708Z,77.00
2018-07-14T22:07:29.447Z,77.70
2018-07-14T22:09:57.992Z,77.00
2018-07-14T22:12:25.660Z,77.00
2018-07-14T22:14:54.276Z,77.00
2018-07-14T22:17:22.964Z,77.00
2018-07-14T22:19:50.648Z,76.70
2018-07-14T22:22:18.322Z,77.00
2018-07-14T22:24:47.032Z,77.00
2018-07-14T22:27:15.704Z,76.90
2018-07-14T22:29:43.396Z,76.90
2018-07-14T22:32:11.096Z,77.00
2018-07-14T22:34:38.781Z,77.10
2018-07-14T22:37:07.205Z,77.10
2018-07-14T22:42:05.940Z,76.90
2018-07-14T22:44:33.620Z,76.90
2018-07-14T22:47:02.309Z,76.90
2018-07-14T22:49:31.006Z,77.00
2018-07-14T22:51:58.676Z,76.90
2018-07-14T22:56:53.757Z,76.90
2018-07-14T22:59:22.424Z,76.90
2018-07-14T23:01:50.336Z,76.80
2018-07-14T23:04:17.996Z,76.80
2018-07-14T23:06:45.669Z,76.90
2018-07-14T23:09:13.344Z,76.80
2018-07-14T23:11:41.012Z,76.90
2018-07-14T23:14:09.712Z,76.90
2018-07-14T23:16:37.441Z,77.00
2018-07-14T23:19:07.100Z,77.10
2018-07-14T23:21:36.990Z,76.90
2018-07-14T23:24:05.935Z,76.90
2018-07-14T23:26:33.647Z,77.00
2018-07-14T23:29:01.459Z,76.90
2018-07-14T23:31:29.153Z,76.90
2018-07-14T23:33:56.830Z,76.80
2018-07-14T23:36:25.500Z,77.00
2018-07-14T23:38:53.175Z,76.90
2018-07-14T23:41:20.844Z,76.80
2018-07-14T23:43:48.511Z,76.80
2018-07-14T23:46:16.601Z,76.80
2018-07-14T23:48:44.284Z,76.70
2018-07-14T23:51:11.961Z,76.60
2018-07-14T23:53:39.637Z,76.70
2018-07-14T23:56:08.245Z,76.70
2018-07-14T23:58:36.761Z,76.60
